Time;durP1;ratioP1;P1;durP2;ratioP2;P2;SDS_P1;SDS_P2;PMS_P1;PMS_P2;Temp;Humidity;BMP_temperature;BMP_pressure;BME280_temperature;BME280_humidity;BME280_pressure;Samples;Min_cycle;Max_cycle;Signal;HPM_P1;HPM_P2
2023/06/09 00:00:00;;;;;;;1.15;1.05;;;17.20;99.90;;;;;;5050472;28;20200;-73
2023/06/09 00:02:28;;;;;;;1.15;1.02;;;17.30;99.90;;;;;;5050653;28;20230;-72
2023/06/09 00:04:57;;;;;;;1.00;0.88;;;17.20;99.90;;;;;;5049879;28;20203;-72
2023/06/09 00:07:27;;;;;;;0.93;0.93;;;17.20;99.90;;;;;;5049723;28;20729;-73
2023/06/09 00:09:55;;;;;;;0.90;0.90;;;17.20;99.90;;;;;;5049860;28;20220;-72
2023/06/09 00:12:22;;;;;;;2.05;1.40;;;17.10;99.90;;;;;;5050384;28;20210;-73
2023/06/09 00:14:52;;;;;;;1.67;1.23;;;17.20;99.90;;;;;;5049464;28;20203;-73
2023/06/09 00:17:20;;;;;;;0.77;0.77;;;17.10;99.90;;;;;;5049727;28;20231;-72
2023/06/09 00:19:48;;;;;;;1.00;0.90;;;17.20;99.90;;;;;;5050187;28;20207;-72
2023/06/09 00:22:17;;;;;;;1.38;1.27;;;17.20;99.90;;;;;;5050377;28;20615;-73
2023/06/09 00:24:45;;;;;;;1.00;0.80;;;17.20;99.90;;;;;;5049713;28;20701;-72
2023/06/09 00:27:13;;;;;;;1.55;1.45;;;17.10;99.90;;;;;;5049538;28;20215;-73
2023/06/09 00:29:41;;;;;;;1.55;1.20;;;17.10;99.90;;;;;;5051600;28;20261;-72
2023/06/09 00:32:11;;;;;;;1.25;1.15;;;17.00;99.90;;;;;;5053931;28;20198;-72
2023/06/09 00:34:40;;;;;;;1.35;0.90;;;17.00;99.90;;;;;;5057082;28;20556;-73
2023/06/09 00:37:08;;;;;;;1.10;1.00;;;17.00;99.90;;;;;;5050956;28;20246;-73
2023/06/09 00:39:36;;;;;;;1.27;1.17;;;17.00;99.90;;;;;;5057461;28;20218;-72
2023/06/09 00:42:05;;;;;;;1.20;1.10;;;16.90;99.90;;;;;;5056606;28;20288;-72
2023/06/09 00:44:33;;;;;;;0.85;0.75;;;16.90;99.90;;;;;;5050731;28;20207;-73
2023/06/09 00:47:01;;;;;;;1.65;1.05;;;16.90;99.90;;;;;;5059680;28;20231;-73
2023/06/09 00:49:30;;;;;;;1.20;1.10;;;16.90;99.90;;;;;;5059656;28;20222;-73
2023/06/09 00:51:59;;;;;;;1.58;0.85;;;16.90;99.90;;;;;;5051317;28;20652;-73
2023/06/09 00:54:27;;;;;;;0.70;0.70;;;16.80;99.90;;;;;;5052023;28;20208;-73
2023/06/09 00:56:56;;;;;;;1.15;1.05;;;16.80;99.90;;;;;;5055978;28;20330;-74
2023/06/09 00:59:25;;;;;;;1.83;1.73;;;16.80;99.90;;;;;;5056653;28;20208;-73
2023/06/09 01:01:53;;;;;;;0.80;0.80;;;16.80;99.90;;;;;;5059566;28;20207;-73
2023/06/09 01:04:21;;;;;;;1.17;0.90;;;16.80;99.90;;;;;;5058127;28;20204;-73
2023/06/09 01:06:58;;;;;;;1.08;0.88;;;16.80;99.90;;;;;;5058869;28;20216;-73
2023/06/09 01:09:33;;;;;;;1.20;1.10;;;16.80;99.90;;;;;;5058434;28;20211;-72
2023/06/09 01:12:10;;;;;;;0.95;0.90;;;16.70;99.90;;;;;;5051934;28;20234;-73
2023/06/09 01:14:48;;;;;;;1.05;0.95;;;16.70;99.90;;;;;;5052859;28;20199;-74
2023/06/09 01:17:18;;;;;;;1.23;1.05;;;16.70;99.90;;;;;;5050060;28;20227;-75
2023/06/09 01:19:50;;;;;;;0.90;0.80;;;16.60;99.90;;;;;;5054832;28;20223;-72
2023/06/09 01:22:29;;;;;;;1.33;1.00;;;16.70;99.90;;;;;;5057080;28;20202;-71
2023/06/09 01:25:06;;;;;;;1.90;1.20;;;16.60;99.90;;;;;;5054389;28;20211;-71
2023/06/09 01:27:39;;;;;;;1.30;0.98;;;16.60;99.90;;;;;;5052844;28;20230;-71
2023/06/09 01:30:10;;;;;;;1.25;1.23;;;16.50;99.90;;;;;;5053060;28;20235;-70
2023/06/09 01:32:39;;;;;;;1.17;1.08;;;16.50;99.90;;;;;;5053188;28;20208;-71
2023/06/09 01:35:09;;;;;;;1.33;0.85;;;16.50;99.90;;;;;;5052862;28;20647;-71
2023/06/09 01:37:38;;;;;;;1.60;1.50;;;16.50;99.90;;;;;;5052275;28;20646;-71
2023/06/09 01:40:08;;;;;;;0.95;0.85;;;16.40;99.90;;;;;;5052239;28;20210;-71
2023/06/09 01:42:37;;;;;;;0.70;0.70;;;16.40;99.90;;;;;;5052573;28;20666;-70
2023/06/09 01:45:06;;;;;;;1.80;1.15;;;16.40;99.90;;;;;;5055492;28;20212;-71
2023/06/09 01:47:35;;;;;;;1.77;1.50;;;16.30;99.90;;;;;;5051252;28;20731;-70
2023/06/09 01:50:04;;;;;;;1.00;0.85;;;16.30;99.90;;;;;;5058608;28;20217;-71
2023/06/09 01:52:39;;;;;;;1.50;1.40;;;16.30;99.90;;;;;;5058928;28;20219;-70
2023/06/09 01:55:13;;;;;;;1.17;0.90;;;16.20;99.90;;;;;;5058802;28;20674;-70
2023/06/09 01:57:50;;;;;;;1.60;1.17;;;16.30;99.90;;;;;;5054159;28;20228;-70
2023/06/09 02:00:20;;;;;;;1.10;0.98;;;16.30;99.90;;;;;;5058502;28;20214;-72
2023/06/09 02:02:50;;;;;;;0.90;0.90;;;16.30;99.90;;;;;;5056911;28;20211;-72
2023/06/09 02:05:20;;;;;;;1.20;1.10;;;16.30;99.90;;;;;;5056576;28;20207;-72
2023/06/09 02:07:49;;;;;;;1.40;1.15;;;16.30;99.90;;;;;;5059004;28;20231;-73
2023/06/09 02:10:21;;;;;;;1.33;1.00;;;16.30;99.90;;;;;;5056968;28;20203;-72
2023/06/09 02:12:50;;;;;;;1.30;1.20;;;16.20;99.90;;;;;;5058151;28;20281;-72
2023/06/09 02:15:19;;;;;;;1.30;1.20;;;16.20;99.90;;;;;;5053874;28;20569;-73
2023/06/09 02:17:47;;;;;;;1.52;0.80;;;16.20;99.90;;;;;;5059039;28;20280;-74
2023/06/09 02:20:15;;;;;;;0.75;0.75;;;16.10;99.90;;;;;;5051165;28;20207;-75
2023/06/09 02:22:43;;;;;;;1.30;1.20;;;16.00;99.90;;;;;;5052241;28;20214;-75
2023/06/09 02:25:11;;;;;;;1.20;1.08;;;16.00;99.90;;;;;;5051814;28;20211;-75
2023/06/09 02:27:39;;;;;;;2.60;1.38;;;16.10;99.90;;;;;;5051685;28;20230;-77
2023/06/09 02:30:09;;;;;;;1.42;1.27;;;16.10;99.90;;;;;;5052208;28;20553;-75
2023/06/09 02:32:37;;;;;;;1.15;1.05;;;16.10;99.90;;;;;;5048780;28;20220;-75
2023/06/09 02:35:06;;;;;;;1.10;1.05;;;16.10;99.90;;;;;;5054125;28;20671;-75
2023/06/09 02:37:35;;;;;;;2.85;1.25;;;16.10;99.90;;;;;;5054385;28;20327;-76
2023/06/09 02:40:04;;;;;;;0.80;0.80;;;16.10;99.90;;;;;;5052087;28;20243;-76
2023/06/09 02:42:32;;;;;;;0.80;0.77;;;16.00;99.90;;;;;;5060066;28;20294;-75
2023/06/09 02:45:00;;;;;;;1.20;1.10;;;16.00;99.90;;;;;;5057780;28;20220;-73
2023/06/09 02:47:29;;;;;;;1.48;0.82;;;16.00;99.90;;;;;;5053591;28;20230;-74
2023/06/09 02:49:57;;;;;;;1.25;1.15;;;16.00;99.90;;;;;;5056138;28;20215;-73
2023/06/09 02:52:28;;;;;;;0.90;0.80;;;15.90;99.90;;;;;;5057604;28;20214;-74
2023/06/09 02:54:56;;;;;;;1.10;1.00;;;16.00;99.90;;;;;;5051903;28;20203;-74
2023/06/09 02:57:25;;;;;;;1.60;0.90;;;16.00;99.90;;;;;;5057776;28;20227;-73
2023/06/09 02:59:53;;;;;;;1.30;1.15;;;16.00;99.90;;;;;;5058593;28;20206;-73
2023/06/09 03:02:21;;;;;;;1.05;0.95;;;16.00;99.90;;;;;;5056435;28;20214;-74
2023/06/09 03:04:52;;;;;;;1.00;0.90;;;16.00;99.90;;;;;;5050947;28;20207;-75
2023/06/09 03:07:20;;;;;;;0.80;0.73;;;16.00;99.90;;;;;;5043603;28;20257;-74
2023/06/09 03:09:48;;;;;;;1.52;1.38;;;15.90;99.90;;;;;;5050967;28;20223;-74
2023/06/09 03:12:16;;;;;;;1.17;0.88;;;15.90;99.90;;;;;;5041643;28;20561;-74
2023/06/09 03:14:44;;;;;;;1.40;1.10;;;15.90;99.90;;;;;;5052123;28;20558;-74
2023/06/09 03:17:13;;;;;;;1.30;1.20;;;15.90;99.90;;;;;;5056274;28;20227;-71
2023/06/09 03:19:41;;;;;;;1.45;1.15;;;15.90;99.90;;;;;;5059179;28;20257;-73
2023/06/09 03:22:10;;;;;;;1.83;1.13;;;15.90;99.90;;;;;;5054411;28;20612;-74
2023/06/09 03:24:39;;;;;;;1.00;0.70;;;15.90;99.90;;;;;;5056496;28;20214;-73
2023/06/09 03:27:07;;;;;;;1.23;1.13;;;15.90;99.90;;;;;;5056396;28;20456;-73
2023/06/09 03:29:34;;;;;;;1.85;1.20;;;15.90;99.90;;;;;;5059660;28;20579;-74
2023/06/09 03:32:03;;;;;;;1.15;1.05;;;15.90;99.90;;;;;;5060063;28;20223;-71
2023/06/09 03:34:31;;;;;;;1.00;0.90;;;16.00;99.90;;;;;;5059879;28;20221;-72
2023/06/09 03:36:59;;;;;;;1.20;1.10;;;15.90;99.90;;;;;;5055065;28;20266;-72
2023/06/09 03:39:28;;;;;;;1.40;1.30;;;15.90;99.90;;;;;;5054547;28;20820;-73
2023/06/09 03:41:57;;;;;;;0.90;0.75;;;15.90;99.90;;;;;;5057590;28;20199;-72
2023/06/09 03:44:25;;;;;;;1.35;1.23;;;15.90;99.90;;;;;;5057991;28;20208;-71
2023/06/09 03:46:52;;;;;;;1.00;0.90;;;15.90;99.90;;;;;;5058607;28;20215;-71
2023/06/09 03:49:20;;;;;;;0.98;0.90;;;15.90;99.90;;;;;;5051577;28;20253;-71
2023/06/09 03:51:48;;;;;;;1.25;0.88;;;15.90;99.90;;;;;;5050712;28;20227;-75
2023/06/09 03:54:16;;;;;;;1.15;1.00;;;15.80;99.90;;;;;;5050074;28;20866;-74
2023/06/09 03:56:45;;;;;;;1.00;1.00;;;15.90;99.90;;;;;;5050288;28;20718;-74
2023/06/09 03:59:13;;;;;;;1.30;1.20;;;15.80;99.90;;;;;;5050297;28;20203;-75
2023/06/09 04:01:42;;;;;;;1.05;0.95;;;15.80;99.90;;;;;;5050547;28;20212;-74
2023/06/09 04:04:11;;;;;;;1.10;0.90;;;15.80;99.90;;;;;;5045528;28;20220;-71
2023/06/09 04:06:45;;;;;;;1.13;1.02;;;15.80;99.90;;;;;;5051530;28;20858;-70
2023/06/09 04:09:14;;;;;;;1.10;0.95;;;15.90;99.90;;;;;;5050116;28;20561;-70
2023/06/09 04:11:42;;;;;;;2.50;1.58;;;15.80;99.90;;;;;;5052650;28;20195;-71
2023/06/09 04:14:11;;;;;;;1.27;1.17;;;15.90;99.90;;;;;;5046711;28;20199;-71
2023/06/09 04:16:39;;;;;;;1.15;1.05;;;16.00;99.90;;;;;;5048693;28;20615;-70
2023/06/09 04:19:08;;;;;;;1.98;1.20;;;16.00;99.90;;;;;;5047423;28;20211;-71
2023/06/09 04:21:37;;;;;;;2.03;1.50;;;16.10;99.90;;;;;;5047409;28;20274;-71
2023/06/09 04:24:08;;;;;;;1.30;1.20;;;16.10;99.90;;;;;;5045784;28;20219;-70
2023/06/09 04:26:37;;;;;;;1.35;1.25;;;16.20;99.90;;;;;;5049802;28;20224;-72
2023/06/09 04:29:09;;;;;;;1.25;1.13;;;16.20;99.90;;;;;;5046693;28;20231;-71
2023/06/09 04:31:42;;;;;;;1.10;1.00;;;16.10;99.90;;;;;;5048761;28;20286;-71
2023/06/09 04:34:12;;;;;;;1.48;0.93;;;16.20;99.90;;;;;;5046262;28;20210;-71
2023/06/09 04:36:41;;;;;;;1.13;1.02;;;16.20;99.90;;;;;;5048324;28;20313;-71
2023/06/09 04:39:11;;;;;;;1.10;1.00;;;16.10;99.90;;;;;;5045010;28;20702;-71
2023/06/09 04:41:39;;;;;;;1.05;0.95;;;16.10;99.90;;;;;;5043529;28;20203;-71
2023/06/09 04:44:06;;;;;;;2.15;1.30;;;16.10;99.90;;;;;;5045116;28;20218;-71
2023/06/09 04:46:37;;;;;;;0.95;0.85;;;16.10;99.90;;;;;;5047842;28;20234;-70
2023/06/09 04:49:09;;;;;;;1.48;1.38;;;16.20;99.90;;;;;;5048278;28;20230;-71
2023/06/09 04:51:41;;;;;;;1.25;1.10;;;16.20;99.90;;;;;;5046923;28;20675;-70
2023/06/09 04:54:10;;;;;;;1.50;1.40;;;16.20;99.90;;;;;;5046698;28;20277;-71
2023/06/09 04:56:38;;;;;;;1.65;1.33;;;16.20;99.90;;;;;;5048196;28;20303;-71
2023/06/09 04:59:07;;;;;;;1.60;1.02;;;16.30;99.90;;;;;;5048638;28;20536;-71
2023/06/09 05:01:35;;;;;;;1.40;1.30;;;16.30;99.90;;;;;;5046300;28;20671;-71
2023/06/09 05:04:03;;;;;;;1.40;1.30;;;16.40;99.90;;;;;;5044549;28;20261;-71
2023/06/09 05:06:32;;;;;;;1.33;1.00;;;16.40;99.90;;;;;;5044522;28;20224;-70
2023/06/09 05:09:00;;;;;;;1.55;1.45;;;16.50;99.90;;;;;;5045744;28;20663;-71
2023/06/09 05:11:28;;;;;;;1.38;1.27;;;16.60;99.90;;;;;;5048600;28;20212;-70
2023/06/09 05:13:56;;;;;;;1.00;0.90;;;16.70;99.90;;;;;;5048392;28;20227;-71
2023/06/09 05:16:25;;;;;;;1.00;0.90;;;16.70;99.90;;;;;;5042799;28;20386;-70
2023/06/09 05:18:53;;;;;;;0.85;0.80;;;16.80;99.90;;;;;;5051914;28;20200;-71
2023/06/09 05:21:23;;;;;;;2.97;1.25;;;16.90;99.90;;;;;;5051991;28;20224;-71
2023/06/09 05:23:52;;;;;;;1.20;1.10;;;17.00;99.90;;;;;;5057056;28;20195;-71
2023/06/09 05:26:21;;;;;;;1.05;0.95;;;17.10;99.90;;;;;;5055550;28;20235;-71
2023/06/09 05:28:49;;;;;;;1.35;1.25;;;17.20;99.90;;;;;;5051809;28;20200;-69
2023/06/09 05:31:17;;;;;;;1.63;1.20;;;17.20;99.90;;;;;;5050515;28;20204;-69
2023/06/09 05:33:45;;;;;;;1.60;1.33;;;17.20;99.90;;;;;;5052695;28;20400;-69
2023/06/09 05:36:13;;;;;;;1.33;1.23;;;17.30;99.90;;;;;;5054267;28;20720;-69
2023/06/09 05:38:41;;;;;;;0.80;0.80;;;17.40;99.90;;;;;;5058156;28;20207;-69
2023/06/09 05:41:14;;;;;;;1.80;1.42;;;17.50;99.90;;;;;;5052574;28;20206;-69
2023/06/09 05:43:42;;;;;;;0.88;0.70;;;17.60;99.90;;;;;;5052940;28;20283;-69
2023/06/09 05:46:10;;;;;;;1.80;1.05;;;17.70;99.90;;;;;;5042545;28;20223;-70
2023/06/09 05:48:38;;;;;;;1.30;1.20;;;17.80;99.90;;;;;;5063279;28;20199;-69
2023/06/09 05:51:06;;;;;;;0.70;0.60;;;17.90;99.90;;;;;;5054227;28;20901;-69
2023/06/09 05:53:34;;;;;;;1.25;0.98;;;18.00;99.90;;;;;;5056020;28;20223;-69
2023/06/09 05:56:02;;;;;;;1.00;0.70;;;18.20;99.90;;;;;;5054664;28;20722;-69
2023/06/09 05:58:33;;;;;;;2.65;1.45;;;18.40;99.90;;;;;;5051755;28;20211;-69
2023/06/09 06:01:03;;;;;;;1.42;1.10;;;18.50;99.90;;;;;;5053878;28;20207;-69
2023/06/09 06:03:32;;;;;;;1.65;1.17;;;18.60;99.90;;;;;;5053012;28;20207;-69
2023/06/09 06:06:01;;;;;;;1.50;1.00;;;18.70;99.90;;;;;;5053917;28;20230;-68
2023/06/09 06:08:28;;;;;;;0.80;0.80;;;18.80;99.90;;;;;;5049987;28;20200;-69
2023/06/09 06:10:57;;;;;;;1.20;1.10;;;18.90;99.90;;;;;;5054007;28;20265;-69
2023/06/09 06:13:24;;;;;;;0.82;0.82;;;19.00;99.90;;;;;;5048971;28;20227;-69
2023/06/09 06:15:54;;;;;;;1.20;1.10;;;19.30;99.90;;;;;;5045108;28;20230;-69
2023/06/09 06:18:22;;;;;;;1.45;1.35;;;19.40;99.90;;;;;;5041058;28;20701;-73
2023/06/09 06:20:49;;;;;;;1.63;1.30;;;19.50;99.90;;;;;;5042019;28;20246;-69
2023/06/09 06:23:18;;;;;;;1.20;1.00;;;19.50;99.90;;;;;;5054426;28;20200;-69
2023/06/09 06:25:46;;;;;;;1.05;0.95;;;19.60;99.90;;;;;;5051982;28;20226;-70
2023/06/09 06:28:15;;;;;;;1.00;0.90;;;19.70;99.90;;;;;;5049259;28;20200;-68
2023/06/09 06:30:43;;;;;;;0.93;0.90;;;19.80;99.90;;;;;;5051652;28;20210;-69
2023/06/09 06:33:12;;;;;;;0.93;0.93;;;19.90;99.90;;;;;;5052036;28;20224;-69
2023/06/09 06:35:40;;;;;;;1.20;1.10;;;20.00;99.90;;;;;;5050730;28;20504;-68
2023/06/09 06:38:08;;;;;;;0.70;0.70;;;20.20;99.90;;;;;;5011864;28;20209;-68
2023/06/09 06:40:36;;;;;;;1.10;0.80;;;20.30;99.90;;;;;;5012604;28;20202;-69
2023/06/09 06:43:04;;;;;;;1.73;0.90;;;20.30;99.90;;;;;;5012117;28;20676;-68
2023/06/09 06:45:32;;;;;;;0.93;0.63;;;20.40;99.90;;;;;;5011556;28;20205;-68
2023/06/09 06:48:00;;;;;;;0.73;0.65;;;20.50;99.90;;;;;;5011962;28;20232;-68
2023/06/09 06:50:29;;;;;;;1.90;1.40;;;20.50;99.90;;;;;;5004358;28;20237;-68
2023/06/09 06:52:57;;;;;;;1.08;1.08;;;20.50;99.90;;;;;;5012398;28;20214;-69
2023/06/09 06:55:25;;;;;;;1.98;0.80;;;20.50;99.90;;;;;;5011843;28;20596;-68
2023/06/09 06:57:57;;;;;;;0.90;0.80;;;20.60;99.90;;;;;;5012014;28;20214;-69
2023/06/09 07:00:27;;;;;;;0.90;0.90;;;20.70;99.90;;;;;;5011881;28;20206;-67
2023/06/09 07:02:56;;;;;;;0.93;0.70;;;20.80;99.90;;;;;;5010881;28;20303;-69
2023/06/09 07:05:25;;;;;;;1.20;0.70;;;20.80;99.90;;;;;;5011592;28;20551;-68
2023/06/09 07:07:55;;;;;;;1.35;0.95;;;20.80;99.90;;;;;;5011614;28;20237;-69
2023/06/09 07:10:23;;;;;;;0.70;0.70;;;21.00;99.90;;;;;;5011708;28;20222;-69
2023/06/09 07:12:50;;;;;;;0.90;0.75;;;21.00;99.90;;;;;;5011884;28;20205;-68
2023/06/09 07:15:18;;;;;;;1.20;0.90;;;21.00;99.90;;;;;;5011001;28;20226;-68
2023/06/09 07:17:46;;;;;;;0.88;0.88;;;21.20;99.90;;;;;;5011406;28;20229;-69
2023/06/09 07:20:14;;;;;;;0.90;0.80;;;21.20;99.90;;;;;;5011497;28;20209;-68
2023/06/09 07:22:42;;;;;;;1.40;1.00;;;21.20;99.90;;;;;;5011571;28;20586;-68
2023/06/09 07:25:12;;;;;;;2.25;2.05;;;21.40;99.90;;;;;;5011302;28;20213;-68
2023/06/09 07:27:40;;;;;;;1.30;1.20;;;21.60;99.90;;;;;;5011184;28;20225;-69
2023/06/09 07:30:09;;;;;;;0.70;0.70;;;21.70;99.90;;;;;;5011185;28;20223;-68
2023/06/09 07:32:39;;;;;;;2.08;1.33;;;21.70;99.90;;;;;;5011651;28;20210;-68
2023/06/09 07:35:10;;;;;;;1.30;0.93;;;21.80;99.90;;;;;;5010793;28;20230;-68
2023/06/09 07:37:39;;;;;;;1.15;0.98;;;21.90;99.90;;;;;;5043127;28;20616;-68
2023/06/09 07:40:09;;;;;;;1.10;1.00;;;22.00;99.90;;;;;;5050093;28;20587;-69
2023/06/09 07:42:48;;;;;;;1.05;1.02;;;22.10;99.90;;;;;;5051142;28;20335;-69
2023/06/09 07:45:17;;;;;;;0.80;0.60;;;22.20;99.90;;;;;;5050344;28;20284;-68
2023/06/09 07:47:45;;;;;;;2.00;1.55;;;22.30;99.90;;;;;;5050360;28;20225;-68
2023/06/09 07:50:14;;;;;;;0.85;0.68;;;22.50;99.90;;;;;;5050781;28;20287;-69
2023/06/09 07:52:41;;;;;;;0.93;0.82;;;22.60;99.90;;;;;;5051160;28;20483;-68
2023/06/09 07:55:09;;;;;;;0.65;0.65;;;22.60;99.90;;;;;;5050359;28;20232;-69
2023/06/09 07:57:43;;;;;;;0.90;0.90;;;22.70;99.90;;;;;;5050605;28;20225;-69
2023/06/09 08:00:15;;;;;;;0.77;0.77;;;22.90;99.90;;;;;;5050686;28;20731;-71
2023/06/09 08:02:43;;;;;;;0.63;0.50;;;22.90;99.90;;;;;;5050865;28;20581;-69
2023/06/09 08:05:11;;;;;;;1.05;0.98;;;23.00;99.90;;;;;;5050499;28;20205;-68
2023/06/09 08:07:40;;;;;;;0.90;0.77;;;23.20;99.90;;;;;;5050320;28;20318;-68
2023/06/09 08:10:08;;;;;;;1.88;0.93;;;23.20;99.90;;;;;;5050487;28;20296;-69
2023/06/09 08:12:38;;;;;;;0.70;0.70;;;23.30;99.90;;;;;;5048941;28;20200;-68
2023/06/09 08:15:07;;;;;;;2.75;1.42;;;23.30;99.90;;;;;;5049871;28;20727;-68
2023/06/09 08:17:36;;;;;;;1.10;1.00;;;23.40;99.90;;;;;;5042253;28;20229;-68
2023/06/09 08:20:05;;;;;;;1.30;1.20;;;23.50;99.90;;;;;;5050699;28;20608;-69
2023/06/09 08:22:34;;;;;;;0.70;0.68;;;23.70;99.90;;;;;;5042487;28;20202;-68
2023/06/09 08:25:03;;;;;;;0.95;0.85;;;23.80;99.90;;;;;;5050100;28;20202;-68
2023/06/09 08:27:31;;;;;;;1.58;0.95;;;24.00;99.90;;;;;;5049799;28;20229;-68
2023/06/09 08:29:59;;;;;;;1.08;0.75;;;24.20;99.90;;;;;;5050337;28;20226;-68
2023/06/09 08:32:27;;;;;;;1.00;0.90;;;24.30;99.90;;;;;;5049976;28;20211;-68
2023/06/09 08:35:06;;;;;;;0.80;0.80;;;24.30;99.90;;;;;;5050165;28;20229;-68
2023/06/09 08:37:35;;;;;;;1.00;0.85;;;24.50;99.90;;;;;;5055617;22;20234;-64
2023/06/09 08:40:07;;;;;;;0.90;0.70;;;24.50;99.90;;;;;;5030583;28;20210;-64
2023/06/09 08:42:37;;;;;;;1.25;0.93;;;24.70;99.90;;;;;;5030424;28;20672;-64
2023/06/09 08:45:06;;;;;;;2.65;1.20;;;24.80;99.90;;;;;;5029825;28;20206;-64
2023/06/09 08:47:38;;;;;;;0.80;0.80;;;24.90;99.90;;;;;;5029988;28;20222;-64
2023/06/09 08:50:10;;;;;;;1.10;0.82;;;25.10;99.90;;;;;;5031318;28;20260;-64
2023/06/09 08:52:38;;;;;;;1.10;1.00;;;25.20;99.90;;;;;;5034308;28;20212;-64
2023/06/09 08:55:08;;;;;;;0.77;0.52;;;25.20;99.90;;;;;;5034266;28;20257;-64
2023/06/09 08:57:36;;;;;;;0.73;0.70;;;25.30;99.90;;;;;;5025934;28;20719;-64
2023/06/09 09:00:11;;;;;;;0.80;0.80;;;25.50;99.90;;;;;;5034528;28;20207;-64
2023/06/09 09:02:40;;;;;;;1.15;1.05;;;25.60;99.90;;;;;;5027011;28;20666;-64
2023/06/09 09:05:10;;;;;;;1.08;0.98;;;25.60;99.90;;;;;;5034344;28;20229;-64
2023/06/09 09:07:39;;;;;;;0.80;0.80;;;25.60;99.90;;;;;;5026756;28;20653;-64
2023/06/09 09:10:08;;;;;;;0.77;0.77;;;25.90;99.90;;;;;;5034627;28;20214;-64
2023/06/09 09:12:47;;;;;;;1.15;1.05;;;26.00;99.90;;;;;;5026030;28;20287;-64
2023/06/09 09:15:14;;;;;;;1.23;1.00;;;26.10;99.90;;;;;;5033678;28;20230;-64
2023/06/09 09:17:44;;;;;;;0.80;0.80;;;26.40;99.90;;;;;;5033637;28;20220;-64
2023/06/09 09:20:14;;;;;;;0.98;0.85;;;26.60;99.90;;;;;;5033932;28;20211;-64
2023/06/09 09:22:47;;;;;;;1.25;1.15;;;26.70;99.90;;;;;;5034404;28;20298;-64
2023/06/09 09:25:23;;;;;;;1.27;1.17;;;26.70;99.90;;;;;;5033933;28;20202;-64
2023/06/09 09:28:01;;;;;;;0.90;0.80;;;26.80;99.90;;;;;;5033435;28;20233;-64
2023/06/09 09:30:43;;;;;;;1.38;1.27;;;27.10;99.90;;;;;;5033596;28;20225;-64
2023/06/09 09:33:12;;;;;;;2.28;1.38;;;27.00;99.90;;;;;;5033426;28;20604;-64
2023/06/09 09:35:46;;;;;;;1.10;1.00;;;27.20;99.90;;;;;;5025553;28;20223;-64
2023/06/09 09:38:17;;;;;;;0.70;0.68;;;27.40;99.90;;;;;;5032730;28;20245;-64
2023/06/09 09:40:47;;;;;;;0.98;0.70;;;27.40;99.90;;;;;;5033475;28;20211;-65
2023/06/09 09:43:15;;;;;;;0.90;0.70;;;27.50;99.90;;;;;;5032906;28;20207;-64
2023/06/09 09:45:45;;;;;;;2.03;1.38;;;27.70;99.90;;;;;;5032858;28;20671;-64
2023/06/09 09:48:15;;;;;;;0.82;0.68;;;27.70;99.70;;;;;;5032810;28;20253;-64
2023/06/09 09:50:45;;;;;;;1.42;1.13;;;27.70;99.40;;;;;;5033407;28;20208;-64
2023/06/09 09:53:13;;;;;;;0.85;0.80;;;27.80;99.70;;;;;;5033096;28;20231;-64
2023/06/09 09:55:45;;;;;;;0.80;0.70;;;27.90;99.40;;;;;;5032826;28;20227;-65
2023/06/09 09:58:15;;;;;;;0.88;0.85;;;28.10;97.80;;;;;;5032839;28;20236;-64
2023/06/09 10:00:46;;;;;;;0.80;0.70;;;28.10;98.90;;;;;;5025593;28;20588;-64
2023/06/09 10:03:17;;;;;;;1.35;0.73;;;28.30;99.00;;;;;;5031890;28;20207;-64
2023/06/09 10:05:49;;;;;;;1.00;0.90;;;28.70;98.60;;;;;;5032772;28;20208;-65
2023/06/09 10:08:21;;;;;;;0.80;0.80;;;28.80;97.60;;;;;;5032272;28;20223;-64
2023/06/09 10:10:52;;;;;;;1.30;1.02;;;28.90;97.80;;;;;;5033062;28;20231;-65
2023/06/09 10:13:21;;;;;;;0.95;0.95;;;28.80;97.70;;;;;;5032815;28;20200;-65
2023/06/09 10:15:51;;;;;;;1.23;1.13;;;29.00;98.10;;;;;;5031941;28;20217;-64
2023/06/09 10:18:21;;;;;;;1.20;0.93;;;29.10;97.90;;;;;;5032452;28;20599;-64
2023/06/09 10:20:52;;;;;;;0.80;0.65;;;29.10;98.90;;;;;;5032387;28;20267;-64
2023/06/09 10:23:22;;;;;;;0.90;0.90;;;29.50;98.30;;;;;;5032599;28;20204;-64
2023/06/09 10:25:51;;;;;;;0.80;0.80;;;29.30;96.90;;;;;;5032132;28;20202;-65
2023/06/09 10:28:20;;;;;;;1.55;0.70;;;29.50;97.10;;;;;;5031909;28;20238;-64
2023/06/09 10:30:49;;;;;;;1.35;1.25;;;29.70;96.90;;;;;;5032477;28;20664;-65
2023/06/09 10:33:21;;;;;;;0.93;0.82;;;29.50;96.60;;;;;;5032000;28;20208;-64
2023/06/09 10:35:55;;;;;;;0.95;0.90;;;29.00;96.90;;;;;;5032044;28;20217;-65
2023/06/09 10:38:28;;;;;;;1.15;0.90;;;29.00;98.20;;;;;;5031718;28;20242;-64
2023/06/09 10:41:08;;;;;;;1.10;1.00;;;28.90;97.20;;;;;;5032364;28;20207;-65
2023/06/09 10:44:04;;;;;;;0.80;0.80;;;28.90;97.50;;;;;;5031771;28;20215;-64
2023/06/09 10:46:42;;;;;;;0.88;0.88;;;29.40;97.40;;;;;;5030557;28;20208;-65
2023/06/09 10:49:42;;;;;;;0.88;0.80;;;29.70;97.00;;;;;;5032100;28;20591;-65
2023/06/09 10:52:45;;;;;;;0.77;0.73;;;29.90;97.50;;;;;;5031764;28;20204;-65
2023/06/09 10:55:15;;;;;;;1.00;0.80;;;29.80;96.80;;;;;;5031672;28;20242;-65
2023/06/09 10:57:44;;;;;;;1.95;1.23;;;29.80;95.70;;;;;;5031383;28;20263;-65
2023/06/09 11:00:13;;;;;;;0.70;0.60;;;29.90;94.80;;;;;;5031769;28;20216;-65
2023/06/09 11:02:42;;;;;;;1.98;1.77;;;30.00;94.10;;;;;;5031359;28;20211;-65
2023/06/09 11:05:11;;;;;;;1.77;1.48;;;30.00;94.30;;;;;;5031559;28;20309;-65
2023/06/09 11:07:41;;;;;;;0.80;0.80;;;30.20;94.70;;;;;;5030952;28;20217;-64
2023/06/09 11:10:35;;;;;;;0.80;0.70;;;30.40;94.30;;;;;;5031596;28;20216;-65
2023/06/09 11:13:19;;;;;;;0.85;0.80;;;30.10;92.30;;;;;;5031048;28;20291;-65
2023/06/09 11:16:01;;;;;;;1.33;1.23;;;30.20;91.50;;;;;;5030869;28;20228;-65
2023/06/09 11:18:30;;;;;;;0.98;0.98;;;30.60;91.20;;;;;;5030930;28;20238;-65
2023/06/09 11:21:11;;;;;;;0.60;0.50;;;30.70;91.80;;;;;;5031646;28;20304;-65
2023/06/09 11:23:56;;;;;;;1.15;1.05;;;30.80;90.20;;;;;;5031216;28;20204;-65
2023/06/09 11:26:26;;;;;;;0.95;0.70;;;31.20;90.70;;;;;;5031228;28;20260;-65
2023/06/09 11:28:54;;;;;;;0.60;0.47;;;30.90;89.40;;;;;;5031111;28;20605;-65
2023/06/09 11:31:23;;;;;;;1.00;0.90;;;30.90;90.10;;;;;;5031136;28;20258;-65
2023/06/09 11:33:53;;;;;;;0.85;0.65;;;31.10;89.70;;;;;;5030804;28;20738;-65
2023/06/09 11:36:25;;;;;;;1.00;0.75;;;31.10;89.60;;;;;;5031218;28;20224;-64
2023/06/09 11:38:53;;;;;;;0.75;0.75;;;31.00;89.20;;;;;;5031137;28;20204;-65
2023/06/09 11:41:24;;;;;;;0.80;0.70;;;30.80;87.80;;;;;;5031479;28;20289;-65
2023/06/09 11:43:57;;;;;;;0.73;0.70;;;30.90;89.20;;;;;;5030909;28;20208;-65
2023/06/09 11:46:25;;;;;;;1.10;1.00;;;31.20;88.40;;;;;;5030396;28;20198;-65
2023/06/09 11:49:06;;;;;;;1.38;0.90;;;31.50;87.30;;;;;;5030641;28;20681;-65
2023/06/09 11:51:53;;;;;;;0.80;0.70;;;32.00;88.10;;;;;;5030987;28;20204;-65
2023/06/09 11:54:21;;;;;;;0.90;0.60;;;32.30;85.20;;;;;;5030653;28;20632;-65
2023/06/09 11:56:49;;;;;;;1.10;1.00;;;32.00;85.40;;;;;;5030622;28;20659;-65
2023/06/09 11:59:19;;;;;;;0.80;0.80;;;31.10;85.40;;;;;;5030835;28;20683;-65
2023/06/09 12:01:57;;;;;;;0.85;0.75;;;30.60;84.90;;;;;;5030835;28;20214;-66
2023/06/09 12:04:25;;;;;;;1.05;0.95;;;30.50;86.20;;;;;;5030583;28;20604;-64
2023/06/09 12:06:53;;;;;;;0.70;0.70;;;30.50;83.50;;;;;;5030236;28;20210;-65
2023/06/09 12:09:23;;;;;;;1.40;1.00;;;30.30;84.30;;;;;;5030605;28;20207;-65
2023/06/09 12:11:54;;;;;;;1.05;0.75;;;30.10;84.70;;;;;;5030735;28;20205;-65
2023/06/09 12:14:24;;;;;;;1.35;0.88;;;30.20;84.50;;;;;;5029978;28;20226;-65
2023/06/09 12:16:52;;;;;;;0.80;0.80;;;30.50;86.10;;;;;;5030135;28;20232;-64
2023/06/09 12:19:24;;;;;;;0.70;0.57;;;30.80;85.10;;;;;;5030959;28;20333;-65
2023/06/09 12:21:52;;;;;;;0.80;0.80;;;31.20;84.20;;;;;;5030440;28;20212;-65
2023/06/09 12:24:20;;;;;;;1.00;1.00;;;31.40;84.40;;;;;;5030000;28;20300;-65
2023/06/09 12:26:49;;;;;;;1.10;1.00;;;31.80;85.90;;;;;;5022529;28;20650;-65
2023/06/09 12:29:24;;;;;;;2.00;1.00;;;31.90;84.90;;;;;;5030654;28;20239;-65
2023/06/09 12:31:53;;;;;;;0.73;0.73;;;32.20;82.20;;;;;;5023363;28;21066;-65
2023/06/09 12:34:24;;;;;;;0.67;0.67;;;32.30;83.40;;;;;;5030042;28;20252;-65
2023/06/09 12:36:52;;;;;;;0.87;0.80;;;32.40;81.80;;;;;;5022340;28;20675;-65
2023/06/09 12:39:21;;;;;;;1.10;1.00;;;32.30;78.60;;;;;;5030716;28;20619;-65
2023/06/09 12:41:49;;;;;;;0.70;0.60;;;32.20;78.30;;;;;;5022731;28;21076;-65
2023/06/09 12:44:22;;;;;;;1.80;1.20;;;32.30;80.50;;;;;;5030146;28;20633;-65
2023/06/09 12:46:56;;;;;;;0.73;0.73;;;32.30;79.50;;;;;;5030137;28;20668;-64
2023/06/09 12:49:30;;;;;;;0.77;0.70;;;32.50;77.70;;;;;;5030403;28;20645;-65
2023/06/09 12:51:58;;;;;;;1.20;1.10;;;32.50;77.90;;;;;;5030282;28;20633;-65
2023/06/09 12:54:27;;;;;;;1.73;1.00;;;32.40;76.80;;;;;;5029725;28;20627;-64
2023/06/09 12:56:56;;;;;;;1.33;0.87;;;32.10;77.80;;;;;;5029936;28;20672;-65
2023/06/09 12:59:25;;;;;;;0.77;0.73;;;32.40;77.80;;;;;;5029945;28;20677;-65
2023/06/09 13:01:55;;;;;;;1.27;1.03;;;32.30;77.20;;;;;;5030242;28;20627;-65